createdAt,value
2018-06-12T00:00:30.708Z,0
2018-06-12T00:01:40.674Z,0
2018-06-12T00:02:50.402Z,0
2018-06-12T00:04:00.597Z,0
2018-06-12T00:05:10.563Z,0
2018-06-12T00:06:20.270Z,0
2018-06-12T00:07:30.252Z,0
2018-06-12T00:08:40.281Z,0
2018-06-12T00:09:49.990Z,0
2018-06-12T00:10:59.955Z,0
2018-06-12T00:12:09.927Z,0
2018-06-12T00:13:19.641Z,0
2018-06-12T00:14:29.346Z,0
2018-06-12T00:15:39.065Z,0
2018-06-12T00:16:49.034Z,0
2018-06-12T00:17:58.995Z,0
2018-06-12T00:19:08.706Z,0
2018-06-12T00:20:18.675Z,0
2018-06-12T00:21:28.403Z,0
2018-06-12T00:22:38.369Z,0
2018-06-12T00:23:48.335Z,0
2018-06-12T00:24:58.057Z,0
2018-06-12T00:26:08.023Z,0
2018-06-12T00:27:18.039Z,0
2018-06-12T00:28:27.755Z,0
2018-06-12T00:29:37.721Z,0
2018-06-12T00:30:47.435Z,0
2018-06-12T00:31:57.138Z,0
2018-06-12T00:33:06.597Z,0
2018-06-12T00:34:16.573Z,0
2018-06-12T00:35:26.538Z,0
2018-06-12T00:36:36.499Z,0
2018-06-12T00:37:46.510Z,0
2018-06-12T00:38:56.218Z,0
2018-06-12T00:40:06.189Z,0
2018-06-12T00:41:15.899Z,0
2018-06-12T00:42:25.878Z,0
2018-06-12T00:43:35.866Z,0
2018-06-12T00:44:45.342Z,0
2018-06-12T00:45:55.318Z,0
2018-06-12T00:47:05.281Z,0
2018-06-12T00:48:15.274Z,0
2018-06-12T00:49:25.256Z,0
2018-06-12T00:50:35.205Z,0
2018-06-12T00:51:45.184Z,0
2018-06-12T00:52:55.141Z,0
2018-06-12T00:54:04.877Z,0
2018-06-12T00:55:14.857Z,0
2018-06-12T00:56:24.835Z,0
2018-06-12T00:57:34.798Z,0
2018-06-12T00:58:44.773Z,0
2018-06-12T00:59:54.764Z,0
2018-06-12T01:01:04.268Z,0
2018-06-12T01:02:13.996Z,0
2018-06-12T01:03:23.955Z,0
2018-06-12T01:04:33.940Z,0
2018-06-12T01:05:43.911Z,0
2018-06-12T01:06:53.894Z,0
2018-06-12T01:08:03.602Z,0
2018-06-12T01:09:13.566Z,0
2018-06-12T01:10:23.538Z,0
2018-06-12T01:11:33.266Z,0
2018-06-12T01:12:42.985Z,0
2018-06-12T01:13:52.695Z,0
2018-06-12T01:15:02.685Z,0
2018-06-12T01:16:12.357Z,0
2018-06-12T01:17:22.072Z,0
2018-06-12T01:18:31.777Z,0
2018-06-12T01:19:41.487Z,0
2018-06-12T01:20:51.467Z,0
2018-06-12T01:22:01.504Z,0
2018-06-12T01:23:11.539Z,0
2018-06-12T01:24:21.517Z,0
2018-06-12T01:25:31.484Z,0
2018-06-12T01:26:41.183Z,0
2018-06-12T01:27:51.152Z,0
2018-06-12T01:29:01.112Z,0
2018-06-12T01:30:11.075Z,0
2018-06-12T01:31:20.785Z,0
2018-06-12T01:32:30.760Z,0
2018-06-12T01:33:40.739Z,0
2018-06-12T01:34:50.443Z,0
2018-06-12T01:36:00.409Z,0
2018-06-12T01:37:10.386Z,0
2018-06-12T01:38:20.358Z,0
2018-06-12T01:39:30.324Z,0
2018-06-12T01:40:40.038Z,0
2018-06-12T01:41:49.758Z,0
2018-06-12T01:42:59.737Z,0
2018-06-12T01:44:09.705Z,0
2018-06-12T01:45:19.687Z,0
2018-06-12T01:46:29.649Z,0
2018-06-12T01:47:39.613Z,0
2018-06-12T01:48:49.575Z,0
2018-06-12T01:49:59.288Z,0
2018-06-12T01:51:09.259Z,0
2018-06-12T01:52:19.232Z,0
2018-06-12T01:53:29.188Z,0
2018-06-12T01:54:39.172Z,0
2018-06-12T01:55:48.881Z,0
2018-06-12T01:56:58.848Z,0
2018-06-12T01:58:08.803Z,0
2018-06-12T01:59:18.513Z,0
2018-06-12T02:00:28.220Z,0
2018-06-12T02:01:38.191Z,0
2018-06-12T02:02:47.901Z,0
2018-06-12T02:03:57.620Z,0
2018-06-12T02:05:07.631Z,0
2018-06-12T02:06:17.634Z,0
2018-06-12T02:07:27.611Z,0
2018-06-12T02:08:37.319Z,0
2018-06-12T02:09:47.280Z,0
2018-06-12T02:10:57.251Z,0
2018-06-12T02:12:07.244Z,0
2018-06-12T02:13:16.968Z,0
2018-06-12T02:14:26.926Z,0
2018-06-12T02:15:36.888Z,0
2018-06-12T02:16:46.593Z,0
2018-06-12T02:17:56.298Z,0
2018-06-12T02:19:06.312Z,0
2018-06-12T02:20:16.283Z,0
2018-06-12T02:21:26.253Z,0
2018-06-12T02:22:36.225Z,0
2018-06-12T02:23:46.215Z,0
2018-06-12T02:24:56.191Z,0
2018-06-12T02:26:06.155Z,0
2018-06-12T02:27:16.118Z,0
2018-06-12T02:28:25.831Z,0
2018-06-12T02:29:35.899Z,0
2018-06-12T02:30:45.871Z,5
2018-06-12T02:31:55.577Z,5
2018-06-12T02:33:05.328Z,5
2018-06-12T02:34:15.298Z,5
2018-06-12T02:35:25.261Z,5
2018-06-12T02:36:35.232Z,5
2018-06-12T02:37:44.956Z,5
2018-06-12T02:38:54.947Z,5
2018-06-12T02:40:04.410Z,5
2018-06-12T02:41:14.386Z,5
2018-06-12T02:42:24.098Z,5
2018-06-12T02:43:34.087Z,10
2018-06-12T02:44:44.153Z,10
2018-06-12T02:45:54.110Z,10
2018-06-12T02:47:04.197Z,10
2018-06-12T02:48:14.174Z,10
2018-06-12T02:49:24.145Z,10
2018-06-12T02:50:33.610Z,10
2018-06-12T02:51:43.326Z,10
2018-06-12T02:52:53.292Z,15
2018-06-12T02:54:03.259Z,15
2018-06-12T02:55:12.974Z,15
2018-06-12T02:56:22.266Z,15
2018-06-12T02:57:31.981Z,20
2018-06-12T02:58:41.970Z,20
2018-06-12T02:59:51.421Z,20
2018-06-12T03:01:00.875Z,25
2018-06-12T03:02:10.577Z,25
2018-06-12T03:03:20.299Z,25
2018-06-12T03:04:30.006Z,25
2018-06-12T03:05:39.730Z,25
2018-06-12T03:06:49.697Z,30
2018-06-12T03:07:59.666Z,30
2018-06-12T03:09:09.384Z,30
2018-06-12T03:10:19.111Z,30
2018-06-12T03:11:29.104Z,35
2018-06-12T03:12:38.838Z,35
2018-06-12T03:13:48.552Z,35
2018-06-12T03:14:58.525Z,35
2018-06-12T03:16:08.509Z,40
2018-06-12T03:17:18.479Z,40
2018-06-12T03:18:28.452Z,45
2018-06-12T03:19:38.457Z,45
2018-06-12T03:20:48.431Z,50
2018-06-12T03:21:58.395Z,50
2018-06-12T03:23:08.361Z,55
2018-06-12T03:24:18.071Z,55
2018-06-12T03:25:28.047Z,55
2018-06-12T03:26:37.760Z,55
2018-06-12T03:27:47.733Z,60
2018-06-12T03:28:57.693Z,60
2018-06-12T03:30:07.677Z,60
2018-06-12T03:31:17.669Z,60
2018-06-12T03:32:27.642Z,65
2018-06-12T03:33:37.345Z,65
2018-06-12T03:34:47.323Z,65
2018-06-12T03:35:57.066Z,70
2018-06-12T03:37:06.765Z,70
2018-06-12T03:38:16.771Z,70
2018-06-12T03:39:26.785Z,75
2018-06-12T03:40:36.493Z,80
2018-06-12T03:41:46.457Z,80
2018-06-12T03:42:56.427Z,80
2018-06-12T03:44:06.128Z,80
2018-06-12T03:45:16.318Z,85
2018-06-12T03:46:26.030Z,85
2018-06-12T03:47:36.002Z,90
2018-06-12T03:48:45.974Z,90
2018-06-12T03:49:55.952Z,95
2018-06-12T03:51:05.933Z,95
2018-06-12T03:52:15.905Z,100
2018-06-12T03:53:25.611Z,100
2018-06-12T03:54:35.321Z,105
2018-06-12T03:55:45.039Z,105
2018-06-12T03:56:54.779Z,110
2018-06-12T03:58:04.740Z,110
2018-06-12T03:59:14.709Z,115
2018-06-12T04:00:24.683Z,115
2018-06-12T04:01:34.391Z,120
2018-06-12T04:02:44.101Z,120
2018-06-12T04:03:53.831Z,125
2018-06-12T04:05:03.546Z,130
2018-06-12T04:06:13.019Z,135
2018-06-12T04:07:22.979Z,135
2018-06-12T04:08:32.951Z,140
2018-06-12T04:09:42.930Z,145
2018-06-12T04:10:52.908Z,150
2018-06-12T04:12:02.870Z,155
2018-06-12T04:13:12.862Z,155
2018-06-12T04:14:22.831Z,160
2018-06-12T04:15:32.556Z,160
2018-06-12T04:16:42.530Z,165
2018-06-12T04:17:52.229Z,165
2018-06-12T04:19:01.941Z,165
2018-06-12T04:20:11.913Z,170
2018-06-12T04:21:21.878Z,170
2018-06-12T04:22:31.839Z,170
2018-06-12T04:23:41.796Z,170
2018-06-12T04:24:51.765Z,175
2018-06-12T04:26:01.731Z,175
2018-06-12T04:27:11.714Z,180
2018-06-12T04:28:21.674Z,180
2018-06-12T04:29:31.636Z,185
2018-06-12T04:30:41.603Z,190
2018-06-12T04:31:51.578Z,195
2018-06-12T04:33:01.296Z,200
2018-06-12T04:34:11.254Z,200
2018-06-12T04:35:20.975Z,205
2018-06-12T04:36:30.691Z,210
2018-06-12T04:37:40.654Z,210
2018-06-12T04:38:50.373Z,215
2018-06-12T04:40:00.346Z,215
2018-06-12T04:41:10.054Z,220
2018-06-12T04:42:19.762Z,220
2018-06-12T04:43:29.678Z,225
2018-06-12T04:44:39.433Z,225
2018-06-12T04:45:49.404Z,220
2018-06-12T04:46:59.375Z,225
2018-06-12T04:48:09.359Z,225
2018-06-12T04:49:19.323Z,230
2018-06-12T04:50:29.284Z,230
2018-06-12T04:51:39.271Z,235
2018-06-12T04:52:49.235Z,230
2018-06-12T04:53:58.953Z,230
2018-06-12T04:55:08.655Z,235
2018-06-12T04:56:18.622Z,240
2018-06-12T04:57:28.083Z,245
2018-06-12T04:58:38.061Z,245
2018-06-12T04:59:48.035Z,250
2018-06-12T05:00:58.019Z,250
2018-06-12T05:02:08.007Z,255
2018-06-12T05:03:17.985Z,260
2018-06-12T05:04:27.962Z,265
2018-06-12T05:05:37.944Z,270
2018-06-12T05:06:47.664Z,275
2018-06-12T05:07:57.641Z,280
2018-06-12T05:09:07.598Z,285
2018-06-12T05:10:17.330Z,290
2018-06-12T05:11:27.296Z,295
2018-06-12T05:12:37.017Z,300
2018-06-12T05:13:47.017Z,305
2018-06-12T05:14:56.984Z,305
2018-06-12T05:16:06.947Z,310
2018-06-12T05:17:16.921Z,315
2018-06-12T05:18:26.880Z,315
2018-06-12T05:19:36.650Z,320
2018-06-12T05:20:46.672Z,320
2018-06-12T05:21:56.647Z,325
2018-06-12T05:23:06.622Z,330
2018-06-12T05:24:16.581Z,335
2018-06-12T05:25:26.308Z,335
2018-06-12T05:26:36.290Z,345
2018-06-12T05:27:46.253Z,345
2018-06-12T05:28:56.222Z,350
2018-06-12T05:30:06.185Z,350
2018-06-12T05:31:16.057Z,355
2018-06-12T05:32:25.526Z,360
2018-06-12T05:33:35.274Z,360
2018-06-12T05:34:45.252Z,360
2018-06-12T05:35:54.959Z,365
2018-06-12T05:37:04.940Z,365
2018-06-12T05:38:14.943Z,370
2018-06-12T05:39:24.909Z,370
2018-06-12T05:40:34.886Z,370
2018-06-12T05:41:44.640Z,370
2018-06-12T05:42:54.626Z,370
2018-06-12T05:44:04.339Z,375
2018-06-12T05:45:14.063Z,370
2018-06-12T05:46:24.054Z,365
2018-06-12T05:47:34.037Z,365
2018-06-12T05:48:44.005Z,365
2018-06-12T05:49:53.994Z,375
2018-06-12T05:51:03.449Z,370
2018-06-12T05:52:13.409Z,370
2018-06-12T05:53:23.390Z,370
2018-06-12T05:54:32.855Z,370
2018-06-12T05:55:42.630Z,375
2018-06-12T05:56:52.661Z,375
2018-06-12T05:58:02.375Z,370
2018-06-12T05:59:12.383Z,375
2018-06-12T06:00:22.084Z,380
2018-06-12T06:01:32.186Z,380
2018-06-12T06:02:42.150Z,385
2018-06-12T06:03:51.851Z,400
2018-06-12T06:05:01.314Z,410
2018-06-12T06:06:10.762Z,415
2018-06-12T06:07:20.477Z,435
2018-06-12T06:08:30.438Z,460
2018-06-12T06:09:40.417Z,460
2018-06-12T06:10:50.492Z,465
2018-06-12T06:12:00.462Z,455
2018-06-12T06:13:10.442Z,440
2018-06-12T06:14:20.424Z,430
2018-06-12T06:15:30.143Z,415
2018-06-12T06:16:40.131Z,415
2018-06-12T06:17:49.857Z,410
2018-06-12T06:18:59.865Z,400
2018-06-12T06:20:09.858Z,415
2018-06-12T06:21:19.855Z,420
2018-06-12T06:22:29.337Z,425
2018-06-12T06:23:38.777Z,410
2018-06-12T06:24:48.775Z,405
2018-06-12T06:25:58.752Z,430
2018-06-12T06:27:08.487Z,460
2018-06-12T06:28:18.461Z,460
2018-06-12T06:29:28.462Z,470
2018-06-12T06:30:38.178Z,480
2018-06-12T06:31:48.148Z,485
2018-06-12T06:32:58.123Z,485
2018-06-12T06:34:07.860Z,515
2018-06-12T06:35:17.587Z,500
2018-06-12T06:36:28.000Z,500
2018-06-12T06:37:37.731Z,515
2018-06-12T06:38:47.712Z,550
2018-06-12T06:39:57.945Z,565
2018-06-12T06:41:07.922Z,525
2018-06-12T06:42:17.642Z,510
2018-06-12T06:43:27.614Z,500
2018-06-12T06:44:37.600Z,545
2018-06-12T06:45:47.317Z,560
2018-06-12T06:46:56.769Z,550
2018-06-12T06:48:06.229Z,560
2018-06-12T06:49:15.678Z,605
2018-06-12T06:50:25.653Z,600
2018-06-12T06:51:35.114Z,630
2018-06-12T06:52:45.100Z,655
2018-06-12T06:53:55.116Z,665
2018-06-12T06:55:05.086Z,660
2018-06-12T06:56:15.067Z,625
2018-06-12T06:57:25.045Z,595
2018-06-12T06:58:34.760Z,560
2018-06-12T06:59:44.768Z,530
2018-06-12T07:00:55.094Z,500
2018-06-12T07:02:04.831Z,475
2018-06-12T07:03:14.298Z,500
2018-06-12T07:04:24.010Z,525
2018-06-12T07:05:33.999Z,555
2018-06-12T07:06:43.984Z,555
2018-06-12T07:07:53.728Z,515
2018-06-12T07:09:03.872Z,495
2018-06-12T07:10:13.872Z,500
2018-06-12T07:11:23.848Z,530
2018-06-12T07:12:33.570Z,555
2018-06-12T07:13:44.012Z,560
2018-06-12T07:14:54.128Z,535
2018-06-12T07:16:04.222Z,515
2018-06-12T07:17:14.216Z,515
2018-06-12T07:18:24.208Z,525
2018-06-12T07:19:33.943Z,515
2018-06-12T07:20:43.938Z,485
2018-06-12T07:21:53.906Z,465
2018-06-12T07:23:03.885Z,455
2018-06-12T07:24:13.890Z,450
2018-06-12T07:25:23.370Z,460
2018-06-12T07:26:33.110Z,495
2018-06-12T07:27:43.093Z,525
2018-06-12T07:28:52.819Z,575
2018-06-12T07:30:02.796Z,610
2018-06-12T07:31:12.881Z,670
2018-06-12T07:32:22.642Z,720
2018-06-12T07:33:31.996Z,780
2018-06-12T07:34:41.976Z,840
2018-06-12T07:35:51.954Z,840
2018-06-12T07:37:01.425Z,825
2018-06-12T07:38:11.142Z,820
2018-06-12T07:39:21.144Z,795
2018-06-12T07:40:31.131Z,780
2018-06-12T07:41:41.106Z,805
2018-06-12T07:42:51.093Z,810
2018-06-12T07:44:01.070Z,815
2018-06-12T07:45:11.062Z,790
2018-06-12T07:46:21.034Z,790
2018-06-12T07:47:30.996Z,780
2018-06-12T07:48:40.984Z,825
2018-06-12T07:49:50.956Z,835
2018-06-12T07:51:00.715Z,875
2018-06-12T07:52:10.702Z,880
2018-06-12T07:53:20.689Z,865
2018-06-12T07:54:30.415Z,850
2018-06-12T07:55:40.162Z,830
2018-06-12T07:56:50.135Z,805
2018-06-12T07:58:00.120Z,760
2018-06-12T07:59:10.094Z,690
2018-06-12T08:00:20.129Z,700
2018-06-12T08:01:29.859Z,705
2018-06-12T08:02:39.848Z,685
2018-06-12T08:03:49.826Z,635
2018-06-12T08:04:59.812Z,570
2018-06-12T08:06:09.539Z,495
2018-06-12T08:07:19.254Z,495
2018-06-12T08:08:29.254Z,515
2018-06-12T08:09:39.020Z,530
2018-06-12T08:10:48.749Z,540
2018-06-12T08:11:58.450Z,555
2018-06-12T08:13:09.067Z,580
2018-06-12T08:14:19.070Z,605
2018-06-12T08:15:29.067Z,590
2018-06-12T08:16:39.086Z,580
2018-06-12T08:17:48.828Z,565
2018-06-12T08:18:58.813Z,590
2018-06-12T08:20:08.821Z,620
2018-06-12T08:21:18.845Z,655
2018-06-12T08:22:28.816Z,660
2018-06-12T08:23:38.553Z,655
2018-06-12T08:24:48.557Z,675
2018-06-12T08:25:58.536Z,710
2018-06-12T08:27:08.575Z,705
2018-06-12T08:28:18.600Z,680
2018-06-12T08:29:28.317Z,650
2018-06-12T08:30:38.868Z,590
2018-06-12T08:31:48.605Z,620
2018-06-12T08:32:58.593Z,645
2018-06-12T08:34:08.579Z,835
2018-06-12T08:35:18.559Z,1305
2018-06-12T08:36:28.301Z,1645
2018-06-12T08:37:38.321Z,1655
2018-06-12T08:38:48.313Z,1450
2018-06-12T08:39:58.531Z,1510
2018-06-12T08:41:08.747Z,1540
2018-06-12T08:42:18.761Z,1615
2018-06-12T08:43:28.495Z,890
2018-06-12T08:44:38.471Z,1540
2018-06-12T08:45:48.463Z,1100
2018-06-12T08:46:58.185Z,875
2018-06-12T08:48:08.207Z,920
2018-06-12T08:49:17.979Z,1135
2018-06-12T08:50:27.741Z,1060
2018-06-12T08:51:37.728Z,1085
2018-06-12T08:52:47.722Z,1160
2018-06-12T08:53:57.758Z,1055
2018-06-12T08:55:07.747Z,1075
2018-06-12T08:56:17.732Z,1295
2018-06-12T08:57:27.726Z,1025
2018-06-12T08:58:37.755Z,860
2018-06-12T08:59:47.743Z,795
2018-06-12T09:00:57.495Z,800
2018-06-12T09:02:07.224Z,895
2018-06-12T09:03:16.964Z,1065
2018-06-12T09:04:27.025Z,1425
2018-06-12T09:05:36.742Z,1100
2018-06-12T09:06:46.492Z,1055
2018-06-12T09:07:56.580Z,1085
2018-06-12T09:09:06.576Z,1070
2018-06-12T09:10:16.572Z,1095
2018-06-12T09:11:26.574Z,1005
2018-06-12T09:12:36.303Z,965
2018-06-12T09:13:46.288Z,965
2018-06-12T09:14:56.264Z,955
2018-06-12T09:16:06.237Z,970
2018-06-12T09:17:16.225Z,1010
2018-06-12T09:18:26.203Z,1100
2018-06-12T09:19:36.193Z,1035
2018-06-12T09:20:45.907Z,1000
2018-06-12T09:21:55.870Z,1120
2018-06-12T09:23:05.588Z,1075
2018-06-12T09:24:15.565Z,1420
2018-06-12T09:25:25.297Z,2360
2018-06-12T09:26:35.035Z,2260
2018-06-12T09:27:45.019Z,1205
2018-06-12T09:28:55.097Z,2150
2018-06-12T09:30:04.832Z,1260
2018-06-12T09:31:14.554Z,1310
2018-06-12T09:32:24.549Z,1125
2018-06-12T09:33:34.278Z,1065
2018-06-12T09:34:44.265Z,1040
2018-06-12T09:35:54.269Z,1305
2018-06-12T09:37:04.363Z,2000
2018-06-12T09:38:14.374Z,2230
2018-06-12T09:39:24.356Z,2345
2018-06-12T09:40:34.361Z,1440
2018-06-12T09:41:44.108Z,1790
2018-06-12T09:42:54.099Z,1375
2018-06-12T09:44:04.108Z,1720
2018-06-12T09:45:14.109Z,2365
2018-06-12T09:46:24.114Z,2285
2018-06-12T09:47:34.129Z,2155
2018-06-12T09:48:43.938Z,2260
2018-06-12T09:49:54.035Z,2270
2018-06-12T09:51:04.050Z,2165
2018-06-12T09:52:14.330Z,950
2018-06-12T09:53:24.419Z,2540
2018-06-12T09:54:34.156Z,2410
2018-06-12T09:55:44.179Z,2275
2018-06-12T09:56:54.163Z,2255
2018-06-12T09:58:04.152Z,2345
2018-06-12T09:59:14.257Z,2370
2018-06-12T10:00:23.729Z,2340
2018-06-12T10:01:33.768Z,2320
2018-06-12T10:02:43.812Z,2430
2018-06-12T10:03:53.830Z,2605
2018-06-12T10:05:03.809Z,2515
2018-06-12T10:06:13.589Z,2550
2018-06-12T10:07:23.573Z,2620
2018-06-12T10:08:33.330Z,2925
2018-06-12T10:09:43.345Z,2210
2018-06-12T10:10:53.085Z,2675
2018-06-12T10:12:02.841Z,2645
2018-06-12T10:13:12.853Z,2280
2018-06-12T10:14:22.927Z,1655
2018-06-12T10:15:32.673Z,1365
2018-06-12T10:16:42.696Z,1400
2018-06-12T10:17:52.708Z,1375
2018-06-12T10:19:02.759Z,1700
2018-06-12T10:20:12.781Z,1855
2018-06-12T10:21:22.809Z,1730
2018-06-12T10:22:32.790Z,1360
2018-06-12T10:23:42.836Z,1310
2018-06-12T10:24:52.887Z,1370
2018-06-12T10:26:02.662Z,1590
2018-06-12T10:27:12.473Z,1570
2018-06-12T10:28:22.476Z,1795
2018-06-12T10:29:32.490Z,1475
2018-06-12T10:30:42.504Z,1820
2018-06-12T10:31:52.637Z,2165
2018-06-12T10:33:02.630Z,2020
2018-06-12T10:34:12.735Z,1565
2018-06-12T10:35:22.544Z,1325
2018-06-12T10:36:32.549Z,1255
2018-06-12T10:37:42.362Z,1155
2018-06-12T10:38:51.854Z,1370
2018-06-12T10:40:01.648Z,1730
2018-06-12T10:41:11.415Z,1370
2018-06-12T10:42:21.153Z,1560
2018-06-12T10:43:31.150Z,1485
2018-06-12T10:44:40.920Z,1285
2018-06-12T10:45:50.672Z,1260
2018-06-12T10:47:00.679Z,1885
2018-06-12T10:48:10.424Z,2755
2018-06-12T10:49:20.424Z,3170
2018-06-12T10:50:30.441Z,2470
2018-06-12T10:51:40.473Z,2125
2018-06-12T10:52:50.491Z,1525
2018-06-12T10:54:00.479Z,1880
2018-06-12T10:55:10.489Z,1655
2018-06-12T10:56:20.484Z,1300
2018-06-12T10:57:30.486Z,1460
2018-06-12T10:58:40.375Z,2615
2018-06-12T10:59:50.150Z,1490
2018-06-12T11:01:00.139Z,1620
2018-06-12T11:02:10.164Z,1790
2018-06-12T11:03:20.194Z,2370
2018-06-12T11:04:30.185Z,1390
2018-06-12T11:05:40.170Z,1470
2018-06-12T11:06:50.174Z,1470
2018-06-12T11:07:59.635Z,3165
2018-06-12T11:09:09.370Z,3260
2018-06-12T11:10:19.362Z,2810
2018-06-12T11:11:29.377Z,1525
2018-06-12T11:12:39.401Z,3060
2018-06-12T11:13:49.395Z,3195
2018-06-12T11:14:59.372Z,1835
2018-06-12T11:16:09.110Z,1310
2018-06-12T11:17:18.842Z,2900
2018-06-12T11:18:28.565Z,3255
2018-06-12T11:19:38.546Z,1410
2018-06-12T11:20:48.736Z,1525
2018-06-12T11:21:58.734Z,2220
2018-06-12T11:23:08.717Z,3040
2018-06-12T11:24:18.715Z,3090
2018-06-12T11:25:28.684Z,3115
2018-06-12T11:26:38.664Z,3135
2018-06-12T11:27:48.650Z,2965
2018-06-12T11:28:58.423Z,2730
2018-06-12T11:30:08.425Z,3150
2018-06-12T11:31:18.409Z,3135
2018-06-12T11:32:27.891Z,3125
2018-06-12T11:33:37.909Z,2915
2018-06-12T11:34:47.945Z,2960
2018-06-12T11:35:57.670Z,2620
2018-06-12T11:37:07.676Z,2525
2018-06-12T11:38:17.397Z,2970
2018-06-12T11:39:27.114Z,3110
2018-06-12T11:40:37.107Z,3170
2018-06-12T11:41:47.102Z,2690
2018-06-12T11:42:56.826Z,3160
2018-06-12T11:44:06.548Z,3070
2018-06-12T11:45:16.296Z,3130
2018-06-12T11:46:26.015Z,3170
2018-06-12T11:47:36.019Z,3210
2018-06-12T11:48:45.777Z,3250
2018-06-12T11:49:55.780Z,3285
2018-06-12T11:51:06.155Z,3335
2018-06-12T11:52:16.202Z,3365
2018-06-12T11:53:26.226Z,3450
2018-06-12T11:54:36.226Z,3515
2018-06-12T11:55:46.224Z,3430
2018-06-12T11:56:56.228Z,3420
2018-06-12T11:58:06.224Z,3140
2018-06-12T11:59:16.221Z,3530
2018-06-12T12:00:26.236Z,2925
2018-06-12T12:01:36.215Z,3265
2018-06-12T12:02:45.937Z,3050
2018-06-12T12:03:55.921Z,2745
2018-06-12T12:05:05.656Z,3615
2018-06-12T12:06:15.672Z,3410
2018-06-12T12:07:25.695Z,2625
2018-06-12T12:08:35.487Z,2380
2018-06-12T12:09:45.501Z,2615
2018-06-12T12:10:55.224Z,2885
2018-06-12T12:12:05.211Z,2495
2018-06-12T12:13:14.429Z,2675
2018-06-12T12:14:24.435Z,2950
2018-06-12T12:15:34.179Z,2685
2018-06-12T12:16:43.910Z,2460
2018-06-12T12:17:53.650Z,2690
2018-06-12T12:19:03.125Z,2405
2018-06-12T12:20:13.143Z,3325
2018-06-12T12:21:22.903Z,3300
2018-06-12T12:22:32.646Z,3125
2018-06-12T12:23:42.682Z,3205
2018-06-12T12:24:52.712Z,3245
2018-06-12T12:26:02.707Z,3240
2018-06-12T12:27:12.670Z,3220
2018-06-12T12:28:22.661Z,3190
2018-06-12T12:29:32.636Z,3095
2018-06-12T12:30:42.633Z,3085
2018-06-12T12:31:52.638Z,3150
2018-06-12T12:33:02.366Z,3230
2018-06-12T12:34:12.349Z,3305
2018-06-12T12:35:22.069Z,3320
2018-06-12T12:36:32.052Z,3305
2018-06-12T12:37:42.049Z,3300
2018-06-12T12:38:51.789Z,3230
2018-06-12T12:40:01.772Z,3085
2018-06-12T12:41:11.802Z,3070
2018-06-12T12:42:21.800Z,3205
2018-06-12T12:43:31.283Z,3465
2018-06-12T12:44:41.004Z,3540
2018-06-12T12:45:50.967Z,3540
2018-06-12T12:47:00.694Z,3515
2018-06-12T12:48:10.179Z,3385
2018-06-12T12:49:20.167Z,2670
2018-06-12T12:50:29.926Z,1310
2018-06-12T12:51:39.665Z,3625
2018-06-12T12:52:49.640Z,3625
2018-06-12T12:53:59.639Z,3530
2018-06-12T12:55:09.636Z,3440
2018-06-12T12:56:19.684Z,3360
2018-06-12T12:57:29.671Z,3290
2018-06-12T12:58:39.643Z,3325
2018-06-12T12:59:49.716Z,3370
2018-06-12T13:00:59.727Z,3410
2018-06-12T13:02:09.712Z,3490
2018-06-12T13:03:19.687Z,3530
2018-06-12T13:04:29.683Z,3460
2018-06-12T13:05:39.682Z,3205
2018-06-12T13:06:49.662Z,3125
2018-06-12T13:07:59.669Z,2030
2018-06-12T13:09:09.128Z,3220
2018-06-12T13:10:19.113Z,3580
2018-06-12T13:11:28.847Z,3270
2018-06-12T13:12:38.581Z,3500
2018-06-12T13:13:48.044Z,3500
2018-06-12T13:14:58.040Z,3235
2018-06-12T13:16:08.025Z,3450
2018-06-12T13:17:18.014Z,3390
2018-06-12T13:18:27.997Z,3530
2018-06-12T13:19:37.718Z,3620
2018-06-12T13:20:47.440Z,3625
2018-06-12T13:21:57.437Z,3585
2018-06-12T13:23:07.179Z,3345
2018-06-12T13:24:17.147Z,3580
2018-06-12T13:25:27.135Z,3585
2018-06-12T13:26:37.212Z,3350
2018-06-12T13:27:47.215Z,3125
2018-06-12T13:28:57.235Z,2695
2018-06-12T13:30:07.235Z,2795
2018-06-12T13:31:16.705Z,2360
2018-06-12T13:32:26.431Z,3685
2018-06-12T13:33:36.378Z,2590
2018-06-12T13:34:46.124Z,3095
2018-06-12T13:35:56.119Z,3270
2018-06-12T13:37:05.867Z,3275
2018-06-12T13:38:15.888Z,3685
2018-06-12T13:39:25.875Z,3520
2018-06-12T13:40:35.103Z,3600
2018-06-12T13:41:44.567Z,3370
2018-06-12T13:42:54.554Z,3215
2018-06-12T13:44:04.292Z,3425
2018-06-12T13:45:14.030Z,3340
2018-06-12T13:46:24.050Z,3320
2018-06-12T13:47:34.032Z,3385
2018-06-12T13:48:44.017Z,3415
2018-06-12T13:49:54.016Z,3350
2018-06-12T13:51:03.987Z,3405
2018-06-12T13:52:13.714Z,3360
2018-06-12T13:53:23.700Z,2760
2018-06-12T13:54:33.677Z,2775
2018-06-12T13:55:43.412Z,3460
2018-06-12T13:56:53.411Z,3495
2018-06-12T13:58:03.400Z,3360
2018-06-12T13:59:12.870Z,3315
2018-06-12T14:00:22.594Z,3465
2018-06-12T14:01:32.575Z,3490
2018-06-12T14:02:42.301Z,3480
2018-06-12T14:03:52.286Z,3235
2018-06-12T14:05:02.018Z,2850
2018-06-12T14:06:12.016Z,3170
2018-06-12T14:07:21.737Z,3530
2018-06-12T14:08:31.735Z,3470
2018-06-12T14:09:41.728Z,3495
2018-06-12T14:10:51.731Z,3530
2018-06-12T14:12:01.732Z,3510
2018-06-12T14:13:11.733Z,3430
2018-06-12T14:14:21.461Z,3365
2018-06-12T14:15:31.447Z,3415
2018-06-12T14:16:41.446Z,3340
2018-06-12T14:17:51.449Z,3350
2018-06-12T14:19:01.436Z,3485
2018-06-12T14:20:11.439Z,3500
2018-06-12T14:21:21.451Z,3345
2018-06-12T14:22:31.174Z,3270
2018-06-12T14:23:40.922Z,3150
2018-06-12T14:24:50.651Z,3160
2018-06-12T14:26:00.644Z,3160
2018-06-12T14:27:10.660Z,3210
2018-06-12T14:28:20.973Z,3275
2018-06-12T14:29:30.980Z,3200
2018-06-12T14:30:40.962Z,3205
2018-06-12T14:31:50.936Z,3350
2018-06-12T14:33:00.668Z,3410
2018-06-12T14:34:10.661Z,3390
2018-06-12T14:35:20.409Z,3350
2018-06-12T14:36:30.407Z,3390
2018-06-12T14:37:40.394Z,3415
2018-06-12T14:38:50.380Z,3470
2018-06-12T14:40:00.352Z,2135
2018-06-12T14:41:10.102Z,2910
2018-06-12T14:42:20.089Z,2125
2018-06-12T14:43:30.077Z,1905
2018-06-12T14:44:40.297Z,1560
2018-06-12T14:45:50.296Z,1625
2018-06-12T14:47:00.039Z,1605
2018-06-12T14:48:10.032Z,1710
2018-06-12T14:49:20.045Z,1930
2018-06-12T14:50:30.034Z,1460
2018-06-12T14:51:40.077Z,1880
2018-06-12T14:52:49.807Z,2090
2018-06-12T14:53:59.803Z,1685
2018-06-12T14:55:10.023Z,1770
2018-06-12T14:56:20.008Z,1610
2018-06-12T14:57:30.011Z,2430
2018-06-12T14:58:39.996Z,2815
2018-06-12T14:59:49.988Z,2845
2018-06-12T15:00:59.979Z,2995
2018-06-12T15:02:09.699Z,2990
2018-06-12T15:03:19.704Z,2950
2018-06-12T15:04:29.431Z,2890
2018-06-12T15:05:39.430Z,2880
2018-06-12T15:06:48.920Z,2970
2018-06-12T15:07:58.920Z,2910
2018-06-12T15:09:08.448Z,2825
2018-06-12T15:10:18.448Z,2785
2018-06-12T15:11:28.197Z,2815
2018-06-12T15:12:37.953Z,2440
2018-06-12T15:13:47.955Z,2795
2018-06-12T15:14:57.990Z,2815
2018-06-12T15:16:08.049Z,2815
2018-06-12T15:17:17.793Z,2800
2018-06-12T15:18:27.532Z,2630
2018-06-12T15:19:37.536Z,1005
2018-06-12T15:20:47.285Z,1270
2018-06-12T15:21:57.282Z,1225
2018-06-12T15:23:07.279Z,1695
2018-06-12T15:24:17.277Z,1040
2018-06-12T15:25:27.415Z,1125
2018-06-12T15:26:37.408Z,1030
2018-06-12T15:27:47.384Z,915
2018-06-12T15:28:57.157Z,860
2018-06-12T15:30:07.204Z,825
2018-06-12T15:31:17.188Z,1440
2018-06-12T15:32:26.917Z,2605
2018-06-12T15:33:37.084Z,2735
2018-06-12T15:34:47.067Z,2740
2018-06-12T15:35:57.075Z,2670
2018-06-12T15:37:06.838Z,2625
2018-06-12T15:38:16.580Z,2650
2018-06-12T15:39:26.575Z,2580
2018-06-12T15:40:36.548Z,2605
2018-06-12T15:41:46.281Z,2760
2018-06-12T15:42:56.264Z,2725
2018-06-12T15:44:06.252Z,2695
2018-06-12T15:45:16.265Z,870
2018-06-12T15:46:26.002Z,870
2018-06-12T15:47:35.981Z,925
2018-06-12T15:48:45.708Z,2520
2018-06-12T15:49:55.770Z,2515
2018-06-12T15:51:05.575Z,2505
2018-06-12T15:52:15.301Z,1605
2018-06-12T15:53:25.295Z,720
2018-06-12T15:54:34.766Z,695
2018-06-12T15:55:44.493Z,685
2018-06-12T15:56:54.480Z,885
2018-06-12T15:58:04.238Z,1980
2018-06-12T15:59:13.967Z,835
2018-06-12T16:00:23.691Z,1710
2018-06-12T16:01:33.496Z,805